Time;durP1;ratioP1;P1;durP2;ratioP2;P2;SDS_P1;SDS_P2;PMS_P1;PMS_P2;Temp;Humidity;BMP_temperature;BMP_pressure;BME280_temperature;BME280_humidity;BME280_pressure;Samples;Min_cycle;Max_cycle;Signal;HPM_P1;HPM_P2
2021/10/03 00:00:21;;;;;;;;;20.00;18.00;;;;;16.30;50.11;99019.88;6237968;27;96497;-62
2021/10/03 00:03:25;;;;;;;;;21.00;19.75;;;;;16.25;50.71;99017.09;6218384;28;97636;-60
2021/10/03 00:06:29;;;;;;;;;18.00;17.00;;;;;16.20;50.43;99017.03;6225685;28;97180;-58
2021/10/03 00:09:36;;;;;;;;;20.00;18.75;;;;;16.16;50.75;99023.25;6221471;27;97894;-61
2021/10/03 00:12:40;;;;;;;;;19.50;18.00;;;;;16.16;51.13;99018.63;6222871;28;97433;-62
2021/10/03 00:15:44;;;;;;;;;28.00;26.00;;;;;16.11;51.72;99012.31;6218799;28;96589;-61
2021/10/03 00:18:47;;;;;;;;;22.00;21.00;;;;;16.09;51.13;99011.72;6216495;28;96599;-60
2021/10/03 00:21:58;;;;;;;;;23.60;22.00;;;;;16.03;51.01;99016.28;6236112;28;96744;-61
2021/10/03 00:25:02;;;;;;;;;22.20;21.00;;;;;15.90;51.21;99014.78;6237743;27;96592;-60
2021/10/03 00:28:07;;;;;;;;;29.00;25.40;;;;;15.89;51.98;99006.88;6232950;28;97799;-59
2021/10/03 00:31:10;;;;;;;;;28.00;25.00;;;;;15.89;52.55;99001.44;6238030;28;96997;-62
2021/10/03 00:34:14;;;;;;;;;23.50;21.00;;;;;15.82;51.93;99007.06;6228370;28;97391;-62
2021/10/03 00:37:18;;;;;;;;;22.00;21.75;;;;;15.72;51.87;98998.78;6233476;28;98209;-61
2021/10/03 00:40:23;;;;;;;;;22.80;22.00;;;;;15.66;51.66;98999.78;6214175;28;96638;-61
2021/10/03 00:43:27;;;;;;;;;26.75;24.25;;;;;15.56;51.98;98992.31;6215595;28;96539;-62
2021/10/03 00:46:30;;;;;;;;;23.60;23.00;;;;;15.50;52.04;98996.00;6234292;28;97949;-62
2021/10/03 00:49:36;;;;;;;;;23.60;22.60;;;;;15.43;52.03;98998.09;6214576;28;96690;-62
2021/10/03 00:52:39;;;;;;;;;25.00;22.00;;;;;15.43;51.92;99008.13;6224554;28;96702;-61
2021/10/03 00:55:44;;;;;;;;;26.00;23.00;;;;;15.32;52.14;99006.34;6230410;28;97495;-61
2021/10/03 00:58:48;;;;;;;;;24.60;21.00;;;;;15.29;52.10;99004.13;6236357;28;97407;-61
2021/10/03 01:01:51;;;;;;;;;22.00;19.60;;;;;15.22;52.22;99011.63;6229456;28;96715;-59
2021/10/03 01:04:54;;;;;;;;;23.20;22.80;;;;;15.19;52.09;99012.94;6233779;28;97472;-61
2021/10/03 01:07:57;;;;;;;;;22.20;21.20;;;;;15.15;52.39;99009.88;6236426;28;97513;-61
2021/10/03 01:11:03;;;;;;;;;23.00;21.00;;;;;15.04;52.61;99001.84;6225840;28;98746;-60
2021/10/03 01:14:06;;;;;;;;;21.40;19.00;;;;;14.99;52.50;99005.31;6226258;28;97645;-61
2021/10/03 01:17:09;;;;;;;;;24.00;21.00;;;;;15.00;52.01;99000.69;6219082;28;96923;-62
2021/10/03 01:20:12;;;;;;;;;21.00;20.40;;;;;15.01;51.63;98995.00;6235475;28;97579;-60
2021/10/03 01:23:18;;;;;;;;;23.40;20.40;;;;;14.95;51.69;98993.31;6232804;28;96612;-62
2021/10/03 01:26:22;;;;;;;;;23.60;20.60;;;;;14.97;51.54;98998.47;6220887;28;97458;-63
2021/10/03 01:29:25;;;;;;;;;21.40;20.80;;;;;14.94;51.68;98993.53;6232123;27;96558;-60
2021/10/03 01:32:28;;;;;;;;;19.00;18.00;;;;;14.91;51.64;98986.69;6231940;28;96974;-62
2021/10/03 01:35:32;;;;;;;;;22.00;20.00;;;;;14.89;51.25;98985.31;6237019;28;96589;-62
2021/10/03 01:38:38;;;;;;;;;21.60;20.00;;;;;14.88;52.04;98980.94;6231893;27;96494;-60
2021/10/03 01:41:42;;;;;;;;;22.80;21.40;;;;;14.87;51.57;98982.84;6218879;28;96747;-61
2021/10/03 01:44:46;;;;;;;;;22.40;20.00;;;;;14.84;51.48;98974.38;6233835;28;97726;-63
2021/10/03 01:48:04;;;;;;;;;21.00;19.60;;;;;14.79;51.48;98974.28;6224558;28;96427;-62
2021/10/03 01:51:12;;;;;;;;;22.60;20.60;;;;;14.73;51.96;98974.22;6223753;28;97432;-62
2021/10/03 01:54:16;;;;;;;;;23.00;21.00;;;;;14.73;52.16;98971.50;6225208;28;97106;-60
2021/10/03 01:57:19;;;;;;;;;25.50;21.00;;;;;14.69;51.91;98964.91;6232822;28;96848;-60
2021/10/03 02:00:23;;;;;;;;;27.00;25.00;;;;;14.70;51.90;98968.47;6221598;27;98156;-60
2021/10/03 02:03:27;;;;;;;;;22.00;20.00;;;;;14.64;52.02;98964.84;6217681;27;96553;-62
2021/10/03 02:06:30;;;;;;;;;25.00;24.00;;;;;14.64;52.52;98967.53;6235110;28;97047;-60
2021/10/03 02:09:34;;;;;;;;;23.20;22.00;;;;;14.67;52.54;98961.63;6232692;28;98055;-61
2021/10/03 02:12:38;;;;;;;;;25.60;23.00;;;;;14.67;52.12;98956.19;6229601;28;96684;-62
2021/10/03 02:15:43;;;;;;;;;29.20;24.60;;;;;14.66;nan;98959.97;6233911;27;97056;-60
2021/10/03 02:18:46;;;;;;;;;27.00;23.00;;;;;14.63;52.61;98952.31;6231941;28;97074;-62
2021/10/03 02:21:50;;;;;;;;;26.40;24.00;;;;;14.57;52.54;98960.63;6231766;28;96692;-61
2021/10/03 02:24:56;;;;;;;;;25.50;23.00;;;;;14.51;52.94;98953.47;6220301;28;96583;-60
2021/10/03 02:27:59;;;;;;;;;25.00;24.00;;;;;14.46;52.90;98948.78;6235247;28;96966;-60
2021/10/03 02:31:07;;;;;;;;;22.40;21.00;;;;;14.39;52.95;98950.00;6233924;28;97485;-63
2021/10/03 02:34:11;;;;;;;;;26.40;25.00;;;;;14.30;52.82;98939.53;6234542;28;97820;-61
2021/10/03 02:37:14;;;;;;;;;26.75;23.00;;;;;14.26;52.73;98937.56;6235792;28;96579;-62
2021/10/03 02:40:19;;;;;;;;;23.20;21.20;;;;;14.29;52.89;98948.72;6225475;28;97535;-61
2021/10/03 02:43:23;;;;;;;;;26.00;24.00;;;;;14.30;52.35;98941.41;6216674;28;96630;-62
2021/10/03 02:46:29;;;;;;;;;22.60;21.60;;;;;14.28;52.11;98938.94;6228176;28;97325;-61
2021/10/03 02:49:32;;;;;;;;;24.60;22.40;;;;;14.24;52.19;98937.78;6236318;27;96685;-59
2021/10/03 02:52:35;;;;;;;;;25.00;21.00;;;;;14.22;52.15;98939.13;6235744;27;97162;-60
2021/10/03 02:55:40;;;;;;;;;24.50;23.50;;;;;14.15;51.94;98931.13;6233295;28;97496;-62
2021/10/03 02:58:43;;;;;;;;;29.00;26.40;;;;;14.26;52.73;98934.84;6226757;28;96671;-61
2021/10/03 03:01:46;;;;;;;;;28.00;25.00;;;;;14.29;52.69;98929.75;6235204;28;97867;-61
2021/10/03 03:04:52;;;;;;;;;28.33;26.00;;;;;14.31;53.11;98924.91;6228416;28;97497;-61
2021/10/03 03:07:55;;;;;;;;;27.60;26.40;;;;;14.29;53.53;98921.59;6238175;28;97560;-61
2021/10/03 03:11:00;;;;;;;;;26.00;25.00;;;;;14.33;52.53;98920.03;6231882;27;96946;-62
2021/10/03 03:14:04;;;;;;;;;27.00;24.50;;;;;14.34;53.51;98910.03;6226118;28;96500;-62
2021/10/03 03:17:15;;;;;;;;;29.00;24.00;;;;;14.39;53.99;98912.84;6239977;28;96831;-61
2021/10/03 03:20:19;;;;;;;;;27.80;25.80;;;;;14.49;54.00;98921.16;6227064;28;98093;-61
2021/10/03 03:23:25;;;;;;;;;29.00;25.00;;;;;14.51;53.44;98924.47;6229529;28;98132;-61
2021/10/03 03:26:29;;;;;;;;;26.50;24.50;;;;;14.49;54.02;98920.34;6239338;28;96876;-61
2021/10/03 03:29:33;;;;;;;;;28.75;25.75;;;;;14.48;53.58;98914.09;6239522;28;96546;-60
2021/10/03 03:32:37;;;;;;;;;29.00;26.50;;;;;14.45;53.28;98906.47;6236390;28;96568;-62
2021/10/03 03:35:40;;;;;;;;;28.00;26.00;;;;;14.46;53.13;98907.28;6225137;28;96814;-61
2021/10/03 03:38:45;;;;;;;;;28.00;25.00;;;;;14.23;53.37;98875.66;6237417;28;99032;-59
2021/10/03 03:41:50;;;;;;;;;26.00;24.20;;;;;14.44;53.21;98903.97;6236119;28;98605;-61
2021/10/03 03:44:57;;;;;;;;;26.00;22.20;;;;;14.46;53.68;98905.38;6222838;28;97036;-60
2021/10/03 03:48:01;;;;;;;;;28.50;25.00;;;;;14.44;53.70;98909.41;6226025;28;96806;-60
2021/10/03 03:51:05;;;;;;;;;28.20;25.20;;;;;14.47;53.65;98911.63;6227928;28;96617;-60
2021/10/03 03:54:08;;;;;;;;;27.20;24.00;;;;;14.44;53.18;98912.13;6229792;27;97587;-60
2021/10/03 03:57:14;;;;;;;;;25.60;23.00;;;;;14.44;53.57;98914.84;6230175;28;97557;-62
2021/10/03 04:00:17;;;;;;;;;28.00;25.00;;;;;14.41;53.22;98913.44;6228286;28;97211;-61
2021/10/03 04:03:20;;;;;;;;;27.00;24.00;;;;;14.40;52.64;98911.78;6229742;27;97069;-60
2021/10/03 04:06:24;;;;;;;;;27.00;25.00;;;;;14.38;52.78;98915.81;6244266;27;96620;-59
2021/10/03 04:09:27;;;;;;;;;27.00;24.00;;;;;14.32;53.02;98910.25;6229571;28;96816;-61
2021/10/03 04:12:35;;;;;;;;;25.00;22.00;;;;;14.28;52.86;98911.00;6224180;27;97432;-60
2021/10/03 04:15:38;;;;;;;;;26.75;23.75;;;;;14.28;53.24;98914.53;6220918;28;96481;-60
2021/10/03 04:18:41;;;;;;;;;25.00;22.75;;;;;14.25;53.25;98923.16;6227873;28;96892;-62
2021/10/03 04:21:45;;;;;;;;;20.00;20.00;;;;;14.30;53.15;98915.13;6217982;28;97328;-61
2021/10/03 04:24:49;;;;;;;;;24.00;23.00;;;;;14.29;52.90;98921.59;6221915;28;96935;-62
2021/10/03 04:27:54;;;;;;;;;24.20;23.20;;;;;14.26;53.18;98913.16;6230485;28;97515;-62
2021/10/03 04:30:57;;;;;;;;;23.00;22.00;;;;;14.23;52.65;98922.56;6224549;27;97529;-62
2021/10/03 04:34:01;;;;;;;;;26.00;25.00;;;;;14.20;52.75;98919.53;6215547;27;97224;-61
2021/10/03 04:37:05;;;;;;;;;22.80;21.20;;;;;14.16;52.54;98913.78;6218400;28;97534;-60
2021/10/03 04:40:09;;;;;;;;;27.00;23.50;;;;;14.14;52.54;98915.91;6219703;28;97151;-62
2021/10/03 04:43:14;;;;;;;;;26.00;23.40;;;;;14.13;52.63;98921.56;6214452;28;97152;-62
2021/10/03 04:46:18;;;;;;;;;22.80;22.40;;;;;14.10;52.47;98922.91;6214435;28;97216;-61
2021/10/03 04:49:21;;;;;;;;;24.00;22.00;;;;;14.08;52.92;98918.75;6214639;28;97390;-62
2021/10/03 04:52:25;;;;;;;;;23.40;21.40;;;;;14.11;52.93;98918.28;6219000;28;96577;-61
2021/10/03 04:55:29;;;;;;;;;22.00;19.80;;;;;14.14;53.02;98923.22;6214507;28;96466;-59
2021/10/03 04:58:34;;;;;;;;;23.80;22.20;;;;;14.23;53.05;98922.56;6220681;28;97578;-61
2021/10/03 05:01:37;;;;;;;;;22.00;19.80;;;;;14.25;53.29;98914.22;6221573;28;96588;-58
2021/10/03 05:04:40;;;;;;;;;26.00;23.00;;;;;14.35;52.91;98921.69;6237545;28;97459;-61
2021/10/03 05:07:43;;;;;;;;;27.40;26.00;;;;;14.38;53.01;98916.63;6226587;28;97598;-60
2021/10/03 05:10:47;;;;;;;;;22.60;22.40;;;;;14.44;53.01;98926.50;6235659;27;97522;-60
2021/10/03 05:13:51;;;;;;;;;26.00;23.60;;;;;14.50;53.17;98927.41;6230254;27;96477;-61
2021/10/03 05:16:54;;;;;;;;;26.00;24.00;;;;;14.57;52.95;98926.16;6223784;28;96601;-61
2021/10/03 05:19:58;;;;;;;;;30.00;26.00;;;;;14.62;53.12;98923.53;6222477;28;97549;-62
2021/10/03 05:23:01;;;;;;;;;26.60;25.00;;;;;14.70;52.73;98922.31;6212242;28;96983;-61
2021/10/03 05:26:05;;;;;;;;;26.40;23.60;;;;;14.76;52.85;98926.75;6216389;28;97417;-61
2021/10/03 05:29:09;;;;;;;;;26.60;23.80;;;;;14.84;52.62;98914.66;6228275;28;96814;-61
2021/10/03 05:32:13;;;;;;;;;24.00;22.00;;;;;14.92;52.63;98914.22;6227331;28;98230;-61
2021/10/03 05:35:16;;;;;;;;;26.67;24.33;;;;;15.04;52.35;98918.50;6225463;28;97417;-60
2021/10/03 05:38:19;;;;;;;;;26.20;24.20;;;;;15.14;52.26;98924.09;6219106;28;97494;-60
2021/10/03 05:41:23;;;;;;;;;27.00;23.80;;;;;15.19;52.18;98917.91;6223016;28;97114;-60
2021/10/03 05:44:27;;;;;;;;;28.00;25.00;;;;;15.34;51.94;98923.53;6216192;28;96574;-61
2021/10/03 05:47:31;;;;;;;;;26.00;23.80;;;;;15.45;51.81;98924.47;6213362;28;97522;-59
2021/10/03 05:50:35;;;;;;;;;22.50;21.50;;;;;15.44;51.61;98901.13;6213809;28;96559;-61
2021/10/03 05:53:39;;;;;;;;;27.40;24.40;;;;;15.69;51.53;98923.16;6215115;28;96430;-61
2021/10/03 05:56:42;;;;;;;;;27.50;25.00;;;;;15.89;51.37;98919.88;6228980;28;96651;-61
2021/10/03 05:59:47;;;;;;;;;26.40;24.40;;;;;16.07;50.94;98922.25;6223433;27;97101;-61
2021/10/03 06:02:50;;;;;;;;;26.20;24.60;;;;;16.27;50.49;98925.16;6226114;28;96788;-62
2021/10/03 06:05:54;;;;;;;;;26.60;24.00;;;;;16.34;50.14;98914.91;6231135;28;97557;-59
2021/10/03 06:08:57;;;;;;;;;25.00;24.00;;;;;16.69;49.95;98921.75;6225554;27;97325;-61
2021/10/03 06:12:00;;;;;;;;;28.00;26.00;;;;;16.89;49.36;98922.72;6214323;28;97421;-60
2021/10/03 06:15:09;;;;;;;;;28.00;26.00;;;;;17.12;49.60;98926.13;6218675;28;96883;-60
2021/10/03 06:18:13;;;;;;;;;25.00;23.25;;;;;17.35;48.90;98920.25;6218319;28;97442;-62
2021/10/03 06:21:16;;;;;;;;;29.00;24.00;;;;;17.72;48.26;98921.03;6222496;28;96922;-60
2021/10/03 06:24:21;;;;;;;;;28.40;25.40;;;;;18.14;47.20;98920.88;6226327;28;97561;-62
2021/10/03 06:27:24;;;;;;;;;28.20;25.00;;;;;18.54;46.34;98920.13;6226985;28;100312;-60
2021/10/03 06:30:29;;;;;;;;;24.60;23.60;;;;;19.00;45.39;98920.94;6234653;28;97555;-59
2021/10/03 06:33:32;;;;;;;;;25.80;22.40;;;;;19.55;44.00;98918.38;6224596;28;97392;-61
2021/10/03 06:36:36;;;;;;;;;20.40;19.00;;;;;20.23;42.46;98920.19;6224976;28;97558;-63
2021/10/03 06:39:39;;;;;;;;;26.00;23.00;;;;;21.47;40.13;98917.78;6224324;28;97619;-59
2021/10/03 06:42:43;;;;;;;;;20.40;20.00;;;;;23.03;37.16;98921.31;6225448;27;97152;-62
2021/10/03 06:45:47;;;;;;;;;21.20;19.20;;;;;24.18;35.33;98933.94;6220949;28;96863;-59
2021/10/03 06:48:51;;;;;;;;;21.60;20.40;;;;;24.51;34.47;98927.09;6233404;27;96743;-59
2021/10/03 06:51:57;;;;;;;;;25.40;22.60;;;;;24.79;33.65;98926.97;6214814;28;97506;-61
2021/10/03 06:55:00;;;;;;;;;21.20;20.80;;;;;25.36;32.77;98922.47;6214306;28;98047;-63
2021/10/03 06:58:04;;;;;;;;;22.40;19.80;;;;;26.10;31.91;98926.13;6231487;28;97189;-62
2021/10/03 07:01:09;;;;;;;;;22.00;20.00;;;;;27.01;30.48;98922.44;6235022;27;97784;-59
2021/10/03 07:04:12;;;;;;;;;23.00;21.00;;;;;27.99;28.99;98925.84;6215173;27;97104;-60
2021/10/03 07:07:15;;;;;;;;;20.00;18.60;;;;;28.75;27.35;98920.06;6214797;28;97520;-62
2021/10/03 07:10:19;;;;;;;;;19.00;18.00;;;;;28.94;27.53;98919.56;6222529;28;97071;-61
2021/10/03 07:13:22;;;;;;;;;18.20;18.20;;;;;29.20;27.04;98916.53;6213067;28;97168;-61
2021/10/03 07:16:27;;;;;;;;;18.50;17.25;;;;;29.59;26.12;98913.13;6225328;28;97511;-61
2021/10/03 07:19:33;;;;;;;;;18.00;17.00;;;;;29.90;26.39;98909.00;6225444;28;97158;-61
2021/10/03 07:22:36;;;;;;;;;19.40;19.40;;;;;29.93;25.69;98911.88;6224424;27;96654;-62
2021/10/03 07:25:40;;;;;;;;;21.50;19.50;;;;;29.96;26.53;98904.81;6217787;28;97526;-61
2021/10/03 07:28:43;;;;;;;;;21.25;19.75;;;;;30.34;26.31;98909.97;6219816;27;97426;-61
2021/10/03 07:31:48;;;;;;;;;18.20;17.80;;;;;30.79;25.66;98912.53;6226835;28;97536;-62
2021/10/03 07:34:52;;;;;;;;;19.67;18.00;;;;;31.19;25.44;98910.47;6228944;28;97490;-62
2021/10/03 07:37:55;;;;;;;;;20.25;18.75;;;;;31.64;24.60;98914.84;6229413;27;96692;-61
2021/10/03 07:40:58;;;;;;;;;20.25;19.00;;;;;32.04;24.47;98912.63;6228090;28;96772;-63
2021/10/03 07:44:01;;;;;;;;;20.00;17.00;;;;;32.57;23.49;98921.41;6248306;27;96600;-59
2021/10/03 07:47:06;;;;;;;;;17.50;16.25;;;;;32.96;22.91;98917.44;6232174;28;97274;-59
2021/10/03 07:50:10;;;;;;;;;20.40;19.40;;;;;33.27;22.43;98910.88;6245703;27;97598;-59
2021/10/03 07:53:14;;;;;;;;;17.00;15.80;;;;;33.64;22.10;98927.91;6233698;27;98068;-61
2021/10/03 07:56:17;;;;;;;;;20.75;19.75;;;;;33.82;21.91;98931.00;6228861;28;96638;-59
2021/10/03 07:59:20;;;;;;;;;18.00;17.00;;;;;33.94;22.00;98931.63;6231349;28;97016;-59
2021/10/03 08:02:25;;;;;;;;;20.00;17.40;;;;;34.30;21.49;98923.81;6238147;28;97513;-62
2021/10/03 08:05:28;;;;;;;;;19.40;17.00;;;;;34.69;21.66;98924.34;6232378;28;97128;-59
2021/10/03 08:08:32;;;;;;;;;18.00;17.00;;;;;34.88;20.97;98928.97;6238347;27;97625;-60
2021/10/03 08:11:35;;;;;;;;;17.00;16.20;;;;;35.01;20.78;98922.72;6228699;27;97866;-58
2021/10/03 08:14:38;;;;;;;;;21.00;20.00;;;;;35.29;20.15;98921.44;6230027;27;97868;-60
2021/10/03 08:17:43;;;;;;;;;18.40;17.40;;;;;35.35;20.43;98925.50;6233359;28;97412;-62
2021/10/03 08:20:52;;;;;;;;;20.20;17.00;;;;;35.48;20.61;98932.47;6237177;28;97631;-60
2021/10/03 08:23:55;;;;;;;;;20.40;18.00;;;;;35.61;20.19;98926.16;6228938;28;97410;-63
2021/10/03 08:26:59;;;;;;;;;16.00;16.00;;;;;35.86;20.51;98929.22;6230014;27;97433;-60
2021/10/03 08:30:03;;;;;;;;;17.00;15.60;;;;;35.94;19.50;98928.06;6229482;28;97859;-62
2021/10/03 08:33:08;;;;;;;;;17.00;16.00;;;;;36.13;19.89;98927.00;6230203;28;98595;-60
2021/10/03 08:36:11;;;;;;;;;16.60;16.00;;;;;36.17;19.39;98927.84;6221075;28;97493;-60
2021/10/03 08:39:14;;;;;;;;;16.00;15.40;;;;;36.17;19.65;98918.59;6224742;28;96797;-63
2021/10/03 08:42:17;;;;;;;;;17.67;15.00;;;;;35.86;20.30;98917.19;6218272;28;99612;-60
2021/10/03 08:45:21;;;;;;;;;15.00;15.00;;;;;35.68;20.16;98905.81;6234645;28;97148;-60
2021/10/03 08:48:27;;;;;;;;;15.00;14.75;;;;;35.75;19.94;98905.88;6236120;27;97399;-62
2021/10/03 08:51:30;;;;;;;;;18.60;17.60;;;;;35.99;19.73;98910.06;6226171;28;96946;-60
2021/10/03 08:54:35;;;;;;;;;16.40;15.00;;;;;36.05;19.93;98892.47;6226981;28;97367;-63
2021/10/03 08:57:39;;;;;;;;;16.60;15.00;;;;;36.46;19.62;98903.53;6223927;28;96869;-61
2021/10/03 09:00:47;;;;;;;;;15.80;15.00;;;;;36.83;19.71;98906.94;6241642;27;97029;-62
2021/10/03 09:03:52;;;;;;;;;14.25;14.25;;;;;37.11;19.63;98913.88;6253781;27;96545;-60
2021/10/03 09:07:08;;;;;;;;;18.00;16.00;;;;;37.41;18.98;98928.38;6237713;28;97515;-63
2021/10/03 09:10:11;;;;;;;;;15.60;14.60;;;;;37.65;18.64;98922.00;6228482;27;97068;-61
2021/10/03 09:13:16;;;;;;;;;16.00;14.60;;;;;37.78;18.75;98910.38;6224395;28;98808;-60
2021/10/03 09:16:23;;;;;;;;;17.80;13.80;;;;;38.01;18.33;98913.59;6219145;28;97264;-63
2021/10/03 09:19:28;;;;;;;;;14.00;11.80;;;;;38.20;17.82;98915.16;6232899;28;97104;-60
2021/10/03 09:22:31;;;;;;;;;13.75;13.75;;;;;38.04;18.15;98909.94;6233324;28;96795;-62
2021/10/03 09:25:42;;;;;;;;;14.20;14.00;;;;;38.03;19.20;98913.97;6221751;28;96916;-62
2021/10/03 09:28:45;;;;;;;;;16.00;14.00;;;;;38.14;18.74;98906.31;6224641;28;96535;-62
2021/10/03 09:32:09;;;;;;;;;14.50;13.50;;;;;38.20;18.91;98903.91;6230048;28;97489;-62
2021/10/03 09:35:14;;;;;;;;;15.00;14.00;;;;;38.34;18.33;98901.84;6213878;28;96613;-61
2021/10/03 09:38:18;;;;;;;;;15.00;14.00;;;;;38.71;18.54;98892.09;6221573;28;96738;-59
2021/10/03 09:41:23;;;;;;;;;15.00;13.80;;;;;38.72;17.62;98890.84;6227558;28;96793;-60
2021/10/03 09:44:27;;;;;;;;;11.00;11.00;;;;;37.34;16.16;98893.84;6232476;27;97435;-60
2021/10/03 09:47:30;;;;;;;;;11.00;10.50;;;;;36.84;17.56;98874.03;6235187;28;96509;-61
2021/10/03 09:50:39;;;;;;;;;11.00;10.00;;;;;36.63;17.04;98863.53;6234547;28;97992;-60
2021/10/03 09:53:43;;;;;;;;;10.40;9.40;;;;;35.97;18.32;98861.94;6224365;28;96524;-61
2021/10/03 09:56:48;;;;;;;;;11.00;10.00;;;;;36.00;17.78;98866.78;6224703;28;97710;-61
2021/10/03 09:59:52;;;;;;;;;10.50;10.00;;;;;35.59;17.55;98863.22;6224785;28;98167;-62
2021/10/03 10:02:56;;;;;;;;;11.60;9.80;;;;;35.34;17.91;98862.22;6222613;28;97428;-62
2021/10/03 10:06:01;;;;;;;;;10.00;9.60;;;;;35.29;19.23;98854.97;6223231;27;97434;-61
2021/10/03 10:09:07;;;;;;;;;11.40;10.00;;;;;35.20;18.45;98869.31;6212391;28;97130;-61
2021/10/03 10:12:14;;;;;;;;;10.40;9.00;;;;;34.50;18.67;98851.69;6221737;27;97463;-60
2021/10/03 10:15:22;;;;;;;;;10.00;9.00;;;;;34.87;18.43;98837.72;6229401;28;97388;-61
2021/10/03 10:18:27;;;;;;;;;9.00;8.50;;;;;34.95;18.31;98848.59;6220258;28;96863;-61
2021/10/03 10:21:31;;;;;;;;;10.00;9.00;;;;;34.92;17.99;98852.19;6220646;28;97414;-61
2021/10/03 10:24:47;;;;;;;;;8.80;8.00;;;;;34.60;18.60;98842.59;6215371;28;97089;-59
2021/10/03 10:28:01;;;;;;;;;10.00;9.00;;;;;34.22;18.64;98840.91;6221962;28;97515;-60
2021/10/03 10:31:10;;;;;;;;;8.00;8.00;;;;;34.25;18.61;98832.59;6217839;28;97483;-61
2021/10/03 10:34:14;;;;;;;;;9.00;8.60;;;;;33.91;18.30;98830.88;6225297;28;97348;-59
2021/10/03 10:37:18;;;;;;;;;9.50;8.00;;;;;33.99;19.28;98828.97;6223661;28;97145;-61
2021/10/03 10:40:29;;;;;;;;;7.75;7.00;;;;;32.85;18.77;98823.47;6221371;27;97833;-59
2021/10/03 10:43:42;;;;;;;;;7.00;6.00;;;;;32.85;19.24;98829.03;6219729;27;97093;-63
2021/10/03 10:46:49;;;;;;;;;9.00;9.00;;;;;32.45;20.01;98821.09;6217794;28;96858;-60
2021/10/03 10:49:54;;;;;;;;;8.00;8.00;;;;;32.48;20.88;98823.13;6220702;28;97604;-61
2021/10/03 10:53:16;;;;;;;;;8.00;8.00;;;;;32.51;20.72;98809.25;6222787;28;97506;-62
2021/10/03 10:56:27;;;;;;;;;9.00;9.00;;;;;32.69;20.36;98809.63;6204131;28;98601;-62
2021/10/03 10:59:30;;;;;;;;;10.00;10.00;;;;;32.49;20.78;98811.63;6202821;28;98085;-61
2021/10/03 11:02:49;;;;;;;;;9.80;9.00;;;;;32.58;20.70;98816.97;6231158;28;96654;-59
2021/10/03 11:05:53;;;;;;;;;9.50;9.50;;;;;32.23;20.95;98808.66;6229574;28;97008;-63
2021/10/03 11:09:04;;;;;;;;;9.80;9.00;;;;;31.75;21.56;98799.66;6222160;28;96624;-62
2021/10/03 11:12:10;;;;;;;;;9.00;9.00;;;;;31.67;21.26;98808.19;6216861;28;97540;-61
2021/10/03 11:15:23;;;;;;;;;9.00;8.60;;;;;31.54;21.86;98790.75;6219639;27;97446;-59
2021/10/03 11:18:26;;;;;;;;;9.00;8.00;;;;;31.87;21.37;98797.88;6215931;28;96696;-60
2021/10/03 11:21:31;;;;;;;;;9.25;9.00;;;;;32.26;21.27;98799.56;6227489;28;96660;-59
2021/10/03 11:24:44;;;;;;;;;8.40;8.00;;;;;32.64;20.78;98787.59;6223158;28;97100;-60
2021/10/03 11:27:56;;;;;;;;;10.00;9.00;;;;;32.81;20.73;98795.47;6229287;28;97475;-61
2021/10/03 11:31:00;;;;;;;;;9.00;8.00;;;;;32.36;21.57;98789.78;6227751;28;97993;-62
2021/10/03 11:34:05;;;;;;;;;8.00;7.20;;;;;32.60;21.42;98787.47;6226620;28;96621;-61
2021/10/03 11:37:13;;;;;;;;;10.00;9.00;;;;;32.94;21.71;98784.97;6220207;28;97863;-60
2021/10/03 11:40:19;;;;;;;;;9.00;9.00;;;;;32.72;21.83;98785.75;6230510;27;96572;-60
2021/10/03 11:43:33;;;;;;;;;8.00;8.00;;;;;33.09;21.13;98784.81;6224363;28;96518;-60
2021/10/03 11:46:36;;;;;;;;;9.00;9.00;;;;;33.01;20.88;98782.28;6219625;28;97250;-60
2021/10/03 11:49:42;;;;;;;;;8.50;8.00;;;;;32.92;20.94;98785.31;6216347;28;97118;-62
2021/10/03 11:52:46;;;;;;;;;10.20;9.00;;;;;32.93;21.66;98766.59;6220692;28;96574;-61
2021/10/03 11:55:53;;;;;;;;;10.00;10.00;;;;;33.12;21.64;98766.50;6226900;28;96796;-61
2021/10/03 11:58:57;;;;;;;;;10.00;9.75;;;;;33.36;20.90;98759.72;6234317;28;96880;-59
2021/10/03 12:02:10;;;;;;;;;9.00;9.00;;;;;33.39;21.12;98758.97;6235536;28;97259;-59
2021/10/03 12:05:18;;;;;;;;;9.00;8.75;;;;;33.25;21.45;98765.16;6237535;28;96457;-64
2021/10/03 12:08:22;;;;;;;;;11.00;11.00;;;;;33.21;22.23;98767.09;6215938;28;97348;-61
2021/10/03 12:11:27;;;;;;;;;8.00;8.00;;;;;32.80;22.19;98751.16;6215772;28;97114;-62
2021/10/03 12:14:42;;;;;;;;;9.00;9.00;;;;;32.55;22.51;98742.31;6229907;27;97004;-62
2021/10/03 12:17:49;;;;;;;;;8.20;7.40;;;;;32.44;22.90;98760.88;6217873;28;97500;-60
2021/10/03 12:20:57;;;;;;;;;10.67;9.00;;;;;32.38;22.65;98740.81;6210207;28;98619;-63
2021/10/03 12:24:07;;;;;;;;;10.00;9.00;;;;;31.99;22.57;98740.00;6216561;28;97315;-59
2021/10/03 12:27:23;;;;;;;;;9.00;9.00;;;;;31.68;22.84;98743.72;6222213;28;97539;-63
2021/10/03 12:30:26;;;;;;;;;8.00;7.00;;;;;31.42;23.83;98733.16;6232516;27;97744;-63
2021/10/03 12:33:37;;;;;;;;;6.20;6.00;;;;;31.44;23.29;98743.13;6223841;27;97403;-62
2021/10/03 12:36:42;;;;;;;;;8.00;8.00;;;;;30.95;24.21;98737.97;6216377;28;97084;-62
2021/10/03 12:39:51;;;;;;;;;10.00;10.00;;;;;31.03;23.82;98731.44;6239654;27;97818;-62
2021/10/03 12:42:57;;;;;;;;;8.00;8.00;;;;;31.21;24.20;98723.50;6217356;28;96951;-60
2021/10/03 12:46:01;;;;;;;;;9.80;9.80;;;;;31.33;23.77;98715.03;6218222;28;97457;-60
2021/10/03 12:49:04;;;;;;;;;9.00;7.00;;;;;31.61;24.19;98723.25;6212208;28;96639;-63
2021/10/03 12:52:10;;;;;;;;;8.00;7.00;;;;;31.56;24.05;98718.78;6212180;28;97449;-63
2021/10/03 12:55:13;;;;;;;;;8.00;8.00;;;;;31.40;23.84;98715.19;6219661;28;97600;-63
2021/10/03 12:58:17;;;;;;;;;7.00;6.40;;;;;31.45;24.28;98717.69;6226003;28;97493;-63
2021/10/03 13:01:21;;;;;;;;;8.40;8.00;;;;;31.69;23.36;98714.69;6187592;27;97789;-61
2021/10/03 13:04:24;;;;;;;;;8.00;8.00;;;;;31.86;23.75;98710.69;6200192;27;97978;-60
2021/10/03 13:07:27;;;;;;;;;8.80;7.80;;;;;31.40;23.33;98704.06;6224622;28;97534;-62
2021/10/03 13:10:31;;;;;;;;;8.00;7.00;;;;;31.23;24.39;98707.22;6218061;28;97640;-62
2021/10/03 13:13:35;;;;;;;;;7.50;7.00;;;;;31.15;24.14;98699.88;6213021;28;97539;-60
2021/10/03 13:16:42;;;;;;;;;7.80;7.00;;;;;30.74;24.36;98688.13;6218695;28;98137;-62
2021/10/03 13:19:45;;;;;;;;;6.00;6.00;;;;;30.14;24.87;98686.53;6225152;28;98143;-62
2021/10/03 13:22:48;;;;;;;;;8.40;8.00;;;;;30.01;25.40;98701.63;6207960;28;97803;-62
2021/10/03 13:25:51;;;;;;;;;6.40;6.40;;;;;29.69;25.75;98700.69;6225158;28;97834;-63
2021/10/03 13:28:56;;;;;;;;;6.20;6.00;;;;;29.61;25.69;98685.78;6224499;28;97542;-62
2021/10/03 13:32:00;;;;;;;;;7.00;6.00;;;;;29.60;25.82;98694.47;6218963;28;98164;-61
2021/10/03 13:35:03;;;;;;;;;8.00;7.40;;;;;29.60;25.44;98697.25;6208778;28;96919;-64
2021/10/03 13:38:08;;;;;;;;;10.00;9.00;;;;;29.66;25.79;98693.06;6209324;28;98164;-61
2021/10/03 13:41:12;;;;;;;;;8.00;8.00;;;;;29.46;25.91;98688.50;6219340;28;97700;-64
2021/10/03 13:44:16;;;;;;;;;9.00;8.60;;;;;29.46;26.45;98682.94;6216531;28;99939;-65
2021/10/03 13:47:20;;;;;;;;;7.80;7.00;;;;;29.32;26.45;98680.53;6221403;28;97301;-63
2021/10/03 13:50:23;;;;;;;;;7.60;7.00;;;;;29.42;26.50;98673.69;6216756;28;97005;-61
2021/10/03 13:53:29;;;;;;;;;6.50;6.00;;;;;29.08;26.18;98672.19;6231726;27;97521;-62
2021/10/03 13:56:32;;;;;;;;;6.00;6.00;;;;;29.04;26.50;98674.06;6220689;27;97203;-61
2021/10/03 13:59:37;;;;;;;;;7.20;7.00;;;;;29.15;26.92;98673.25;6211377;28;96653;-65
2021/10/03 14:02:42;;;;;;;;;7.00;7.00;;;;;28.84;26.82;98659.97;6220485;27;97138;-64
2021/10/03 14:05:46;;;;;;;;;8.00;6.00;;;;;28.64;27.13;98662.81;6225338;28;97711;-62
2021/10/03 14:08:49;;;;;;;;;8.60;8.00;;;;;28.79;27.61;98659.38;6222783;28;97405;-62
2021/10/03 14:11:52;;;;;;;;;9.00;9.00;;;;;28.65;27.58;98664.44;6217733;28;97587;-64
2021/10/03 14:14:57;;;;;;;;;8.60;8.00;;;;;28.42;27.88;98656.56;6225627;28;96919;-63